Time;durP1;ratioP1;P1;durP2;ratioP2;P2;SDS_P1;SDS_P2;PMS_P1;PMS_P2;Temp;Humidity;BMP_temperature;BMP_pressure;BME280_temperature;BME280_humidity;BME280_pressure;Samples;Min_cycle;Max_cycle;Signal;HPM_P1;HPM_P2
2021/09/19 00:02:07;;;;;;;4.63;2.30;;;14.30;99.90;;;;;;5066371;28;20061;-73
2021/09/19 00:04:33;;;;;;;4.32;2.47;;;14.30;99.90;;;;;;5067618;28;20487;-73
2021/09/19 00:06:59;;;;;;;5.32;2.70;;;14.30;99.90;;;;;;5069986;28;20029;-74
2021/09/19 00:09:24;;;;;;;5.03;2.35;;;14.30;99.90;;;;;;5063864;28;20044;-73
2021/09/19 00:11:49;;;;;;;3.55;2.50;;;14.30;99.90;;;;;;5068602;28;20073;-74
2021/09/19 00:14:16;;;;;;;6.63;2.40;;;14.30;99.90;;;;;;5067539;28;20028;-74
2021/09/19 00:16:42;;;;;;;5.38;2.33;;;14.30;99.90;;;;;;5058542;28;20025;-74
2021/09/19 00:19:09;;;;;;;4.30;2.58;;;14.30;99.90;;;;;;5066740;28;20024;-74
2021/09/19 00:21:34;;;;;;;4.60;2.70;;;14.30;99.90;;;;;;5063391;28;20039;-74
2021/09/19 00:24:00;;;;;;;2.97;2.10;;;14.30;99.90;;;;;;5065219;28;20398;-74
2021/09/19 00:26:25;;;;;;;4.05;2.70;;;14.30;99.90;;;;;;5059589;28;20036;-74
2021/09/19 00:28:51;;;;;;;6.13;2.95;;;14.30;99.90;;;;;;5062227;28;20102;-74
2021/09/19 00:31:17;;;;;;;4.28;2.38;;;14.30;99.90;;;;;;5063071;28;20033;-75
2021/09/19 00:33:42;;;;;;;3.72;2.45;;;14.30;99.90;;;;;;5054013;28;20039;-74
2021/09/19 00:36:08;;;;;;;3.08;2.20;;;14.30;99.90;;;;;;5067905;28;20113;-74
2021/09/19 00:38:33;;;;;;;6.40;2.45;;;14.20;99.90;;;;;;5063643;28;20028;-74
2021/09/19 00:40:59;;;;;;;6.40;2.53;;;14.20;99.90;;;;;;5068753;28;20100;-74
2021/09/19 00:43:24;;;;;;;4.53;2.40;;;14.20;99.90;;;;;;5063995;28;20051;-75
2021/09/19 00:45:49;;;;;;;2.50;2.30;;;14.20;99.90;;;;;;5062434;28;20503;-74
2021/09/19 00:48:15;;;;;;;3.13;2.28;;;14.20;99.90;;;;;;5068911;28;20028;-74
2021/09/19 00:50:40;;;;;;;3.78;2.78;;;14.20;99.90;;;;;;5066935;28;20513;-74
2021/09/19 00:53:08;;;;;;;6.05;2.70;;;14.20;99.90;;;;;;5064983;28;20028;-73
2021/09/19 00:55:33;;;;;;;4.95;2.20;;;14.20;99.90;;;;;;5066106;28;20051;-74
2021/09/19 00:58:05;;;;;;;3.58;2.72;;;14.20;99.90;;;;;;5064147;28;20503;-74
2021/09/19 01:00:31;;;;;;;3.35;2.22;;;14.20;99.90;;;;;;5063073;28;20023;-74
2021/09/19 01:02:56;;;;;;;5.07;2.33;;;14.20;99.90;;;;;;5068035;28;20032;-74
2021/09/19 01:05:23;;;;;;;5.10;2.28;;;14.20;99.90;;;;;;5068546;28;20761;-74
2021/09/19 01:07:49;;;;;;;7.70;2.70;;;14.20;99.90;;;;;;5067596;28;20032;-74
2021/09/19 01:10:17;;;;;;;7.60;3.13;;;14.20;99.90;;;;;;5079599;28;20115;-74
2021/09/19 01:12:43;;;;;;;3.78;2.25;;;14.20;99.90;;;;;;5063450;28;20050;-73
2021/09/19 01:15:11;;;;;;;3.35;2.38;;;14.20;99.90;;;;;;5070738;28;20024;-75
2021/09/19 01:17:41;;;;;;;5.38;2.60;;;14.10;99.90;;;;;;5061212;28;20052;-74
2021/09/19 01:20:13;;;;;;;5.18;2.38;;;14.10;99.90;;;;;;5063390;28;20411;-74
2021/09/19 01:22:40;;;;;;;5.35;2.40;;;14.10;99.90;;;;;;5066414;28;20052;-74
2021/09/19 01:25:09;;;;;;;4.00;2.53;;;14.10;99.90;;;;;;5062383;28;20399;-74
2021/09/19 01:27:35;;;;;;;3.30;2.35;;;14.10;99.90;;;;;;5075161;28;20081;-74
2021/09/19 01:30:00;;;;;;;4.40;2.38;;;14.10;99.90;;;;;;5063238;28;20633;-74
2021/09/19 01:32:26;;;;;;;5.38;2.55;;;14.10;99.90;;;;;;5067652;28;20031;-74
2021/09/19 01:34:52;;;;;;;6.22;2.42;;;14.10;99.90;;;;;;5067180;28;20509;-74
2021/09/19 01:37:18;;;;;;;3.60;2.40;;;14.10;99.90;;;;;;5076935;28;20056;-74
2021/09/19 01:39:44;;;;;;;5.45;2.58;;;14.10;99.90;;;;;;5071101;28;20016;-73
2021/09/19 01:42:11;;;;;;;4.57;2.50;;;14.10;99.90;;;;;;5070535;28;20112;-75
2021/09/19 01:44:37;;;;;;;4.68;2.40;;;14.10;99.90;;;;;;5077097;28;20131;-74
2021/09/19 01:47:03;;;;;;;5.70;2.42;;;14.10;99.90;;;;;;5065972;28;20040;-74
2021/09/19 01:49:29;;;;;;;4.15;2.40;;;14.10;99.90;;;;;;5066445;28;20487;-74
2021/09/19 01:51:54;;;;;;;5.78;2.90;;;14.10;99.90;;;;;;5064231;28;20036;-74
2021/09/19 01:54:20;;;;;;;5.25;2.60;;;14.00;99.90;;;;;;5072879;28;20021;-74
2021/09/19 01:56:45;;;;;;;4.70;2.35;;;14.00;99.90;;;;;;5065899;28;20033;-74
2021/09/19 01:59:11;;;;;;;2.97;2.53;;;14.00;99.90;;;;;;5040178;28;20117;-74
2021/09/19 02:01:36;;;;;;;3.55;2.30;;;14.00;99.90;;;;;;5038189;28;20700;-74
2021/09/19 02:04:02;;;;;;;5.35;2.40;;;14.00;99.90;;;;;;5046707;28;20171;-73
2021/09/19 02:06:27;;;;;;;4.43;2.33;;;14.00;99.90;;;;;;5043163;28;20399;-73
2021/09/19 02:08:53;;;;;;;3.13;2.25;;;14.00;99.90;;;;;;5046258;28;20028;-74
2021/09/19 02:11:20;;;;;;;4.30;2.53;;;13.90;99.90;;;;;;5042352;28;20061;-74
2021/09/19 02:13:47;;;;;;;4.47;2.33;;;13.90;99.90;;;;;;5040455;28;20045;-73
2021/09/19 02:16:13;;;;;;;5.50;2.70;;;13.90;99.90;;;;;;5043416;28;20487;-74
2021/09/19 02:18:39;;;;;;;3.33;2.13;;;13.90;99.90;;;;;;5043205;28;20633;-74
2021/09/19 02:21:08;;;;;;;5.00;2.40;;;13.90;99.90;;;;;;5051010;28;20108;-74
2021/09/19 02:23:33;;;;;;;9.38;2.40;;;13.90;99.90;;;;;;5044964;28;20033;-74
2021/09/19 02:26:00;;;;;;;3.83;2.42;;;13.90;99.90;;;;;;5047186;28;20044;-74
2021/09/19 02:28:25;;;;;;;3.33;2.28;;;13.90;99.90;;;;;;5045838;28;20392;-75
2021/09/19 02:30:52;;;;;;;5.55;2.45;;;13.90;99.90;;;;;;5042156;28;20031;-74
2021/09/19 02:33:17;;;;;;;7.43;2.70;;;13.90;99.90;;;;;;5036638;28;20025;-73
2021/09/19 02:35:43;;;;;;;5.20;2.72;;;13.90;99.90;;;;;;5047315;28;20035;-74
2021/09/19 02:38:08;;;;;;;8.20;2.60;;;13.90;99.90;;;;;;5040225;28;20025;-73
2021/09/19 02:40:34;;;;;;;5.05;2.20;;;13.90;99.90;;;;;;5051593;28;20021;-73
2021/09/19 02:43:00;;;;;;;8.35;2.70;;;13.90;99.90;;;;;;5044809;28;20029;-73
2021/09/19 02:45:25;;;;;;;4.20;2.30;;;13.90;99.90;;;;;;5041816;28;20043;-74
2021/09/19 02:47:51;;;;;;;7.68;2.53;;;13.90;99.90;;;;;;5042954;28;20476;-73
2021/09/19 02:50:20;;;;;;;6.15;2.67;;;13.90;99.90;;;;;;5043019;28;20032;-73
2021/09/19 02:52:46;;;;;;;5.03;2.90;;;13.90;99.90;;;;;;5055651;28;20115;-73
2021/09/19 02:55:12;;;;;;;4.70;2.40;;;13.90;99.90;;;;;;5044353;28;20025;-73
2021/09/19 02:57:38;;;;;;;4.60;2.42;;;13.90;99.90;;;;;;5055427;28;20052;-73
2021/09/19 03:00:07;;;;;;;5.15;2.45;;;13.90;99.90;;;;;;5060195;28;20098;-74
2021/09/19 03:02:32;;;;;;;6.20;2.55;;;13.90;99.90;;;;;;5060951;28;20116;-73
2021/09/19 03:04:58;;;;;;;4.07;2.10;;;13.80;99.90;;;;;;5066566;28;20124;-73
2021/09/19 03:07:23;;;;;;;6.95;2.53;;;13.80;99.90;;;;;;5061804;28;20483;-73
2021/09/19 03:09:49;;;;;;;8.27;2.38;;;13.80;99.90;;;;;;5061347;28;20028;-73
2021/09/19 03:12:14;;;;;;;4.25;2.65;;;13.80;99.90;;;;;;5058863;28;20025;-74
2021/09/19 03:14:40;;;;;;;4.53;2.65;;;13.80;99.90;;;;;;5068448;28;20109;-73
2021/09/19 03:17:05;;;;;;;3.22;2.17;;;13.80;99.90;;;;;;5074769;28;20071;-73
2021/09/19 03:19:31;;;;;;;4.18;2.50;;;13.80;99.90;;;;;;5067344;28;20020;-73
2021/09/19 03:21:56;;;;;;;2.95;2.17;;;13.80;99.90;;;;;;5074662;28;20036;-73
2021/09/19 03:24:21;;;;;;;4.95;2.58;;;13.80;99.90;;;;;;5065922;28;20134;-74
2021/09/19 03:26:47;;;;;;;6.10;2.50;;;13.80;99.90;;;;;;5066992;28;20025;-73
2021/09/19 03:29:12;;;;;;;6.78;2.35;;;13.80;99.90;;;;;;5062210;28;20029;-74
2021/09/19 03:31:38;;;;;;;3.03;2.15;;;13.80;99.90;;;;;;5066582;28;20037;-74
2021/09/19 03:34:03;;;;;;;4.15;1.83;;;13.80;99.90;;;;;;5068224;28;20021;-74
2021/09/19 03:36:29;;;;;;;3.53;2.22;;;13.70;99.90;;;;;;5074885;28;20429;-73
2021/09/19 03:38:54;;;;;;;4.15;2.25;;;13.70;99.90;;;;;;5057294;28;20032;-73
2021/09/19 03:41:20;;;;;;;3.15;2.38;;;13.80;99.90;;;;;;5062456;28;20044;-74
2021/09/19 03:43:46;;;;;;;4.82;2.72;;;13.80;99.90;;;;;;5067690;28;20051;-73
2021/09/19 03:46:11;;;;;;;4.78;2.03;;;13.80;99.90;;;;;;5070841;28;20638;-73
2021/09/19 03:48:37;;;;;;;3.67;2.40;;;13.80;99.90;;;;;;5072724;28;20135;-73
2021/09/19 03:51:02;;;;;;;3.63;2.13;;;13.80;99.90;;;;;;5069396;28;20272;-74
2021/09/19 03:53:28;;;;;;;6.40;2.38;;;13.80;99.90;;;;;;5069861;28;20032;-73
2021/09/19 03:55:54;;;;;;;3.78;2.70;;;13.80;99.90;;;;;;5065547;28;20031;-73
2021/09/19 03:58:21;;;;;;;5.55;2.10;;;13.70;99.90;;;;;;5070348;28;20049;-73
2021/09/19 04:00:47;;;;;;;6.20;2.45;;;13.70;99.90;;;;;;5063876;28;20031;-74
2021/09/19 04:03:12;;;;;;;3.75;2.10;;;13.70;99.90;;;;;;5066467;28;20040;-74
2021/09/19 04:05:38;;;;;;;5.45;2.45;;;13.70;99.90;;;;;;5068280;28;20082;-73
2021/09/19 04:08:04;;;;;;;4.18;2.58;;;13.70;99.90;;;;;;5062231;28;20029;-73
2021/09/19 04:10:29;;;;;;;3.10;2.13;;;13.70;99.90;;;;;;5070789;28;20031;-73
2021/09/19 04:12:55;;;;;;;2.38;1.98;;;13.70;99.90;;;;;;5066191;28;20024;-73
2021/09/19 04:15:20;;;;;;;3.83;2.55;;;13.70;99.90;;;;;;5069559;28;20222;-73
2021/09/19 04:17:46;;;;;;;4.75;2.50;;;13.70;99.90;;;;;;5068151;28;20067;-73
2021/09/19 04:20:12;;;;;;;5.55;2.40;;;13.70;99.90;;;;;;5069532;28;20043;-73
2021/09/19 04:22:38;;;;;;;2.60;2.22;;;13.70;99.90;;;;;;5066058;28;20033;-74
2021/09/19 04:25:05;;;;;;;4.15;2.38;;;13.70;99.90;;;;;;5058367;28;20021;-73
2021/09/19 04:27:30;;;;;;;4.53;2.35;;;13.70;99.90;;;;;;5061824;28;20078;-73
2021/09/19 04:29:56;;;;;;;4.72;2.40;;;13.70;99.90;;;;;;5064957;28;20028;-73
2021/09/19 04:32:21;;;;;;;3.58;2.58;;;13.70;99.90;;;;;;5067490;28;20082;-73
2021/09/19 04:34:47;;;;;;;5.20;2.45;;;13.70;99.90;;;;;;5064866;28;20055;-73
2021/09/19 04:37:14;;;;;;;5.50;2.72;;;13.60;99.90;;;;;;5059772;28;20025;-73
2021/09/19 04:39:40;;;;;;;4.05;2.38;;;13.70;99.90;;;;;;5062044;28;20029;-73
2021/09/19 04:42:07;;;;;;;9.10;2.70;;;13.60;99.90;;;;;;5067136;28;20107;-73
2021/09/19 04:44:33;;;;;;;6.40;2.47;;;13.70;99.90;;;;;;5058641;28;20616;-74
2021/09/19 04:46:58;;;;;;;3.83;2.50;;;13.70;99.90;;;;;;5067304;28;20029;-73
2021/09/19 04:49:24;;;;;;;6.20;2.03;;;13.70;99.90;;;;;;5062680;28;20029;-73
2021/09/19 04:51:49;;;;;;;2.95;2.30;;;13.60;99.90;;;;;;5065154;28;20032;-73
2021/09/19 04:54:15;;;;;;;13.50;2.78;;;13.60;99.90;;;;;;5061170;28;20028;-74
2021/09/19 04:56:40;;;;;;;3.42;2.28;;;13.70;99.90;;;;;;5070519;28;20052;-73
2021/09/19 04:59:06;;;;;;;3.03;2.20;;;13.60;99.90;;;;;;5076178;28;20033;-73
2021/09/19 05:01:31;;;;;;;5.13;2.88;;;13.70;99.90;;;;;;5067278;28;20050;-73
2021/09/19 05:03:57;;;;;;;4.65;2.20;;;13.70;99.90;;;;;;5068086;28;20422;-73
2021/09/19 05:06:22;;;;;;;4.75;2.92;;;13.70;99.90;;;;;;5057657;28;20028;-73
2021/09/19 05:08:48;;;;;;;5.10;2.72;;;13.70;99.90;;;;;;5067060;28;20387;-74
2021/09/19 05:11:13;;;;;;;7.60;2.75;;;13.60;99.90;;;;;;5070464;28;20104;-73
2021/09/19 05:13:39;;;;;;;3.05;2.40;;;13.60;99.90;;;;;;5059450;28;20103;-74
2021/09/19 05:16:04;;;;;;;4.00;2.67;;;13.60;99.90;;;;;;5072413;28;20115;-74
2021/09/19 05:18:30;;;;;;;4.97;2.60;;;13.60;99.90;;;;;;5060468;28;20079;-73
2021/09/19 05:20:55;;;;;;;4.00;2.75;;;13.60;99.90;;;;;;5063958;28;20031;-73
2021/09/19 05:23:21;;;;;;;4.65;2.45;;;13.60;99.90;;;;;;5061309;28;20028;-73
2021/09/19 05:25:46;;;;;;;8.32;2.90;;;13.70;99.90;;;;;;5066842;28;20404;-73
2021/09/19 05:28:12;;;;;;;7.15;2.63;;;13.70;99.90;;;;;;5054421;28;20029;-73
2021/09/19 05:30:37;;;;;;;5.85;3.28;;;13.70;99.90;;;;;;5065738;28;20036;-74
2021/09/19 05:33:03;;;;;;;10.98;5.55;;;13.70;99.90;;;;;;5066642;28;20055;-73
2021/09/19 05:35:28;;;;;;;13.48;4.97;;;13.70;99.90;;;;;;5065825;28;20025;-73
2021/09/19 05:37:54;;;;;;;12.32;5.10;;;13.70;99.90;;;;;;5060745;28;20017;-74
2021/09/19 05:40:19;;;;;;;7.50;4.85;;;13.70;99.90;;;;;;5058261;28;20070;-73
2021/09/19 05:42:45;;;;;;;9.13;4.93;;;13.70;99.90;;;;;;5067095;28;20402;-74
2021/09/19 05:45:11;;;;;;;4.65;3.08;;;13.70;99.90;;;;;;5068935;28;20414;-74
2021/09/19 05:47:37;;;;;;;8.75;4.28;;;13.70;99.90;;;;;;5068043;28;20806;-74
2021/09/19 05:50:04;;;;;;;7.25;4.00;;;13.70;99.90;;;;;;5073460;28;20040;-74
2021/09/19 05:52:29;;;;;;;7.18;4.18;;;13.70;99.90;;;;;;5067234;28;20124;-74
2021/09/19 05:54:54;;;;;;;7.75;4.32;;;13.70;99.90;;;;;;5048059;28;20103;-74
2021/09/19 05:57:21;;;;;;;9.13;4.28;;;13.70;99.90;;;;;;5066204;28;20433;-74
2021/09/19 05:59:47;;;;;;;7.60;4.50;;;13.80;99.90;;;;;;5067565;28;20035;-74
2021/09/19 06:02:13;;;;;;;12.70;8.18;;;13.70;99.90;;;;;;5060210;28;20020;-74
2021/09/19 06:04:38;;;;;;;5.63;3.83;;;13.80;99.90;;;;;;5066711;28;20169;-74
2021/09/19 06:07:04;;;;;;;8.57;5.10;;;13.80;99.90;;;;;;5067473;28;20446;-74
2021/09/19 06:09:30;;;;;;;9.82;6.45;;;13.80;99.90;;;;;;5066097;28;20024;-74
2021/09/19 06:11:55;;;;;;;9.95;6.43;;;13.80;99.90;;;;;;5068189;28;20504;-74
2021/09/19 06:14:21;;;;;;;7.68;3.58;;;13.90;99.90;;;;;;5070485;28;20510;-74
2021/09/19 06:16:46;;;;;;;7.60;4.00;;;13.90;99.90;;;;;;5062351;28;20078;-74
2021/09/19 06:19:12;;;;;;;6.57;3.42;;;13.80;99.90;;;;;;5064131;28;20891;-74
2021/09/19 06:21:37;;;;;;;5.00;3.90;;;13.90;99.90;;;;;;5064454;28;20020;-74
2021/09/19 06:24:03;;;;;;;6.32;3.70;;;13.90;99.90;;;;;;5077859;28;20017;-74
2021/09/19 06:26:28;;;;;;;5.90;3.42;;;13.90;99.90;;;;;;5066160;28;20017;-74
2021/09/19 06:28:54;;;;;;;11.30;4.43;;;13.90;99.90;;;;;;5059996;28;20222;-74
2021/09/19 06:31:22;;;;;;;5.22;3.53;;;13.90;99.90;;;;;;5065966;28;20032;-74
2021/09/19 06:33:47;;;;;;;4.63;2.78;;;13.90;99.90;;;;;;5065792;28;20035;-74
2021/09/19 06:36:13;;;;;;;4.20;3.30;;;14.00;99.90;;;;;;5054862;28;20025;-74
2021/09/19 06:38:38;;;;;;;5.05;2.97;;;14.00;99.90;;;;;;5067849;28;20032;-74
2021/09/19 06:41:04;;;;;;;4.07;2.05;;;14.00;99.90;;;;;;5060430;28;20016;-74
2021/09/19 06:43:29;;;;;;;4.97;2.42;;;14.00;99.90;;;;;;5057011;28;20108;-74
2021/09/19 06:45:55;;;;;;;5.13;2.72;;;14.00;99.90;;;;;;5060337;28;20592;-74
2021/09/19 06:48:20;;;;;;;5.60;2.90;;;14.00;99.90;;;;;;5054827;28;20032;-74
2021/09/19 06:50:46;;;;;;;5.13;2.88;;;14.00;99.90;;;;;;5064467;28;20044;-74
2021/09/19 06:53:11;;;;;;;6.82;2.67;;;14.00;99.90;;;;;;5065165;28;20509;-74
2021/09/19 06:55:36;;;;;;;5.25;2.70;;;14.00;99.90;;;;;;5067107;28;20024;-74
2021/09/19 06:58:02;;;;;;;4.40;2.33;;;14.00;99.90;;;;;;5065545;28;20048;-74
2021/09/19 07:00:28;;;;;;;5.25;2.70;;;14.00;99.90;;;;;;5063380;28;20028;-74
2021/09/19 07:02:53;;;;;;;5.43;2.65;;;14.10;99.90;;;;;;5060444;28;20123;-73
2021/09/19 07:05:19;;;;;;;5.65;2.92;;;14.10;99.90;;;;;;5062712;28;20021;-73
2021/09/19 07:07:45;;;;;;;3.83;2.40;;;14.10;99.90;;;;;;5066284;28;20120;-72
2021/09/19 07:10:11;;;;;;;50.33;24.13;;;14.20;99.90;;;;;;5061239;28;20100;-73
2021/09/19 07:12:37;;;;;;;20.92;9.25;;;14.20;99.90;;;;;;5057995;28;20036;-73
2021/09/19 07:15:04;;;;;;;6.55;3.50;;;14.20;99.90;;;;;;5060377;28;20025;-74
2021/09/19 07:17:29;;;;;;;5.43;2.78;;;14.20;99.90;;;;;;5059541;28;20047;-75
2021/09/19 07:19:55;;;;;;;5.55;3.20;;;14.30;99.90;;;;;;5064800;28;20391;-74
2021/09/19 07:22:20;;;;;;;8.30;3.20;;;14.30;99.90;;;;;;5053492;28;20044;-74
2021/09/19 07:24:46;;;;;;;6.53;3.78;;;14.30;99.90;;;;;;5059718;28;20005;-74
2021/09/19 07:27:11;;;;;;;5.20;2.92;;;14.30;99.90;;;;;;5069617;28;20032;-74
2021/09/19 07:29:37;;;;;;;4.93;2.80;;;14.40;99.90;;;;;;5068606;28;20032;-74
2021/09/19 07:32:06;;;;;;;6.50;3.10;;;14.40;99.90;;;;;;5064576;28;20044;-74
2021/09/19 07:34:32;;;;;;;5.03;3.15;;;14.40;99.90;;;;;;5067532;28;20104;-74
2021/09/19 07:36:58;;;;;;;5.05;2.85;;;14.50;99.90;;;;;;5051661;28;20023;-74
2021/09/19 07:39:23;;;;;;;4.38;2.80;;;14.50;99.90;;;;;;5069858;28;20020;-75
2021/09/19 07:41:53;;;;;;;6.40;4.20;;;14.50;99.90;;;;;;5052675;28;20090;-73
2021/09/19 07:44:19;;;;;;;11.68;5.38;;;14.60;99.90;;;;;;5046948;28;20033;-71
2021/09/19 07:46:45;;;;;;;8.43;3.10;;;14.70;99.90;;;;;;5064601;28;20041;-72
2021/09/19 07:49:11;;;;;;;6.00;3.22;;;14.70;99.90;;;;;;5067503;28;20028;-71
2021/09/19 07:51:36;;;;;;;5.20;2.95;;;14.80;99.90;;;;;;5065157;28;20025;-71
2021/09/19 07:54:02;;;;;;;3.15;2.28;;;14.90;99.90;;;;;;5059003;28;20078;-71
2021/09/19 07:56:27;;;;;;;4.57;2.55;;;15.00;99.90;;;;;;5061677;28;20036;-71
2021/09/19 07:58:53;;;;;;;5.18;2.15;;;15.00;99.90;;;;;;5063124;28;20040;-71
2021/09/19 08:01:18;;;;;;;4.90;2.58;;;15.00;99.90;;;;;;5067349;28;20033;-71
2021/09/19 08:03:44;;;;;;;4.13;2.58;;;15.10;99.90;;;;;;5070427;28;20028;-71
2021/09/19 08:06:09;;;;;;;4.32;2.65;;;15.20;99.90;;;;;;5061651;28;20041;-71
2021/09/19 08:08:35;;;;;;;4.47;2.83;;;15.20;99.90;;;;;;5060515;28;20540;-72
2021/09/19 08:11:00;;;;;;;4.63;2.40;;;15.20;99.90;;;;;;5066288;28;20028;-70
2021/09/19 08:13:26;;;;;;;3.92;2.50;;;15.30;99.90;;;;;;5070252;28;20036;-71
2021/09/19 08:15:51;;;;;;;5.32;2.40;;;15.40;99.90;;;;;;5067244;28;20475;-71
2021/09/19 08:18:17;;;;;;;5.25;2.83;;;15.40;99.90;;;;;;5055088;28;20028;-71
2021/09/19 08:20:44;;;;;;;4.88;2.13;;;15.40;99.90;;;;;;5062011;28;20071;-71
2021/09/19 08:23:09;;;;;;;4.53;2.80;;;15.50;99.90;;;;;;5063198;28;20048;-72
2021/09/19 08:25:35;;;;;;;4.40;2.42;;;15.50;99.90;;;;;;5067131;28;20486;-71
2021/09/19 08:28:00;;;;;;;4.70;2.83;;;15.50;99.90;;;;;;5078591;28;20031;-71
2021/09/19 08:30:26;;;;;;;5.30;2.13;;;15.50;99.90;;;;;;5068993;28;20035;-71
2021/09/19 08:32:52;;;;;;;4.38;2.80;;;15.60;99.90;;;;;;5064956;28;20032;-71
2021/09/19 08:35:18;;;;;;;5.03;2.70;;;15.60;99.90;;;;;;5061645;28;20037;-71
2021/09/19 08:37:44;;;;;;;4.57;2.80;;;15.70;99.90;;;;;;5069906;28;20027;-72
2021/09/19 08:40:11;;;;;;;4.22;2.35;;;15.60;99.90;;;;;;5066843;28;20027;-71
2021/09/19 08:42:38;;;;;;;3.97;3.03;;;15.70;99.90;;;;;;5074927;28;20035;-70
2021/09/19 08:45:05;;;;;;;4.72;3.13;;;15.70;99.90;;;;;;5071578;28;20024;-72
2021/09/19 08:47:31;;;;;;;5.28;2.88;;;15.70;99.90;;;;;;5061914;28;20059;-71
2021/09/19 08:49:57;;;;;;;7.03;2.78;;;15.70;99.90;;;;;;5067331;28;20474;-72
2021/09/19 08:52:23;;;;;;;4.47;2.72;;;15.70;99.90;;;;;;5060516;28;20503;-71
2021/09/19 08:54:49;;;;;;;5.30;2.55;;;15.70;99.90;;;;;;5068117;28;20161;-72
2021/09/19 08:57:14;;;;;;;4.95;2.33;;;15.70;99.90;;;;;;5067173;28;20395;-72
2021/09/19 08:59:43;;;;;;;5.43;2.55;;;15.70;99.90;;;;;;5067933;28;20020;-71
2021/09/19 09:02:08;;;;;;;3.28;2.58;;;15.70;99.00;;;;;;5065787;28;20394;-71
2021/09/19 09:04:36;;;;;;;5.10;2.63;;;15.70;98.90;;;;;;5067534;28;20021;-72
2021/09/19 09:07:02;;;;;;;4.47;2.72;;;15.70;99.40;;;;;;5069223;28;20043;-71
2021/09/19 09:09:28;;;;;;;4.72;2.45;;;15.70;99.90;;;;;;5066645;28;20024;-71
2021/09/19 09:12:12;;;;;;;6.25;3.00;;;15.80;98.50;;;;;;5068891;28;20024;-71
2021/09/19 09:14:42;;;;;;;4.60;2.70;;;15.80;97.90;;;;;;5075023;28;20025;-71
2021/09/19 09:17:15;;;;;;;4.28;2.25;;;16.00;96.70;;;;;;5059958;28;20025;-71
2021/09/19 09:19:42;;;;;;;3.63;2.10;;;16.20;95.90;;;;;;5060501;28;20028;-70
2021/09/19 09:22:09;;;;;;;4.40;2.58;;;16.40;95.70;;;;;;5065506;28;20032;-70
2021/09/19 09:24:36;;;;;;;5.88;2.63;;;16.60;96.00;;;;;;5066587;28;20032;-72
2021/09/19 09:27:20;;;;;;;6.03;2.30;;;16.70;93.20;;;;;;5052477;28;20577;-71
2021/09/19 09:30:12;;;;;;;8.90;2.38;;;16.70;93.10;;;;;;5052244;28;20033;-70
2021/09/19 09:33:00;;;;;;;2.63;1.88;;;16.80;92.70;;;;;;5049461;28;20438;-73
2021/09/19 09:35:33;;;;;;;3.70;2.00;;;16.80;90.70;;;;;;5058835;28;20053;-73
2021/09/19 09:37:59;;;;;;;3.58;2.33;;;16.90;90.60;;;;;;5052374;28;20958;-73
2021/09/19 09:40:30;;;;;;;2.30;2.10;;;17.00;90.40;;;;;;5051460;28;20487;-72
2021/09/19 09:43:04;;;;;;;7.47;2.20;;;17.00;88.20;;;;;;5054483;28;20062;-73
2021/09/19 09:45:31;;;;;;;2.60;1.95;;;17.00;83.90;;;;;;5057753;28;20025;-73
2021/09/19 09:47:58;;;;;;;3.67;1.90;;;17.10;84.40;;;;;;5056028;28;20029;-74
2021/09/19 09:50:26;;;;;;;2.85;1.80;;;17.20;83.70;;;;;;5051192;28;20065;-74
2021/09/19 09:53:05;;;;;;;2.03;1.45;;;17.20;83.30;;;;;;5049952;28;20045;-74
2021/09/19 09:55:31;;;;;;;3.20;1.80;;;17.30;84.20;;;;;;5045768;28;20051;-74
2021/09/19 09:58:08;;;;;;;3.45;1.98;;;17.30;83.40;;;;;;5053143;28;20510;-74
2021/09/19 10:00:33;;;;;;;2.60;2.10;;;17.40;81.10;;;;;;5055468;28;20075;-74
2021/09/19 10:02:59;;;;;;;2.53;1.92;;;17.40;80.60;;;;;;5053599;28;20569;-74
2021/09/19 10:05:26;;;;;;;3.55;2.20;;;17.50;79.00;;;;;;5051404;28;20147;-74
2021/09/19 10:07:52;;;;;;;5.32;2.13;;;17.60;80.80;;;;;;5058288;28;20064;-74
2021/09/19 10:10:20;;;;;;;2.83;1.95;;;17.70;82.30;;;;;;5056657;28;20126;-74
2021/09/19 10:12:47;;;;;;;4.80;2.20;;;17.80;83.40;;;;;;5044741;28;20044;-74
2021/09/19 10:15:13;;;;;;;3.25;2.22;;;17.80;83.00;;;;;;5049365;28;20029;-74
2021/09/19 10:17:39;;;;;;;3.40;2.00;;;17.90;82.70;;;;;;5047881;28;20025;-74
2021/09/19 10:20:20;;;;;;;2.78;1.98;;;18.00;81.80;;;;;;5048559;28;20495;-74
2021/09/19 10:22:50;;;;;;;3.25;2.30;;;18.10;79.90;;;;;;5052045;28;20078;-75
2021/09/19 10:25:25;;;;;;;4.47;2.03;;;18.20;79.10;;;;;;5057847;28;20082;-75
2021/09/19 10:27:51;;;;;;;3.97;2.15;;;18.30;77.10;;;;;;5052128;28;20035;-75
2021/09/19 10:30:18;;;;;;;2.80;1.90;;;18.40;75.20;;;;;;5052853;28;20033;-75
2021/09/19 10:32:48;;;;;;;1.88;1.60;;;18.40;73.40;;;;;;5055215;28;20028;-75
2021/09/19 10:35:22;;;;;;;4.53;2.28;;;18.50;73.50;;;;;;5049947;28;20031;-75
2021/09/19 10:38:06;;;;;;;2.80;1.60;;;18.70;76.00;;;;;;5049674;28;20074;-74
2021/09/19 10:40:39;;;;;;;2.97;1.98;;;18.80;68.10;;;;;;5063987;28;20059;-73
2021/09/19 10:43:07;;;;;;;5.38;2.45;;;18.70;69.90;;;;;;5072965;28;20040;-74
2021/09/19 10:45:42;;;;;;;3.95;2.08;;;18.70;68.40;;;;;;5056683;28;20033;-73
2021/09/19 10:48:32;;;;;;;8.02;2.45;;;18.60;68.30;;;;;;5066983;28;20031;-73
2021/09/19 10:51:05;;;;;;;2.22;1.80;;;18.40;72.00;;;;;;5055263;28;20142;-73
2021/09/19 10:53:31;;;;;;;4.30;1.75;;;18.30;71.20;;;;;;5062140;28;20028;-74
2021/09/19 10:56:04;;;;;;;3.15;2.03;;;18.20;71.80;;;;;;5049232;28;20032;-73
2021/09/19 10:58:41;;;;;;;2.70;1.88;;;18.30;76.80;;;;;;5067579;28;20083;-73
2021/09/19 11:01:16;;;;;;;3.78;1.55;;;18.30;73.80;;;;;;5048187;28;20503;-74
2021/09/19 11:03:44;;;;;;;3.47;2.10;;;18.50;71.40;;;;;;5072013;28;20150;-73
2021/09/19 11:06:34;;;;;;;2.60;1.83;;;18.40;71.90;;;;;;5071453;28;20503;-74
2021/09/19 11:09:24;;;;;;;2.50;1.70;;;18.30;71.20;;;;;;5058431;28;20033;-74
2021/09/19 11:12:14;;;;;;;2.50;1.80;;;18.10;71.00;;;;;;5058191;28;20055;-73
2021/09/19 11:15:00;;;;;;;3.15;1.98;;;17.90;73.20;;;;;;5051394;28;20029;-73
2021/09/19 11:17:28;;;;;;;12.82;2.50;;;17.70;75.00;;;;;;5059408;28;20028;-74
2021/09/19 11:20:11;;;;;;;2.75;1.83;;;17.60;73.60;;;;;;5067603;28;20179;-74
2021/09/19 11:22:52;;;;;;;5.47;1.80;;;17.50;76.00;;;;;;5065459;28;20036;-76
2021/09/19 11:25:19;;;;;;;2.50;1.90;;;17.40;75.20;;;;;;5067017;28;20036;-74
2021/09/19 11:27:47;;;;;;;2.78;1.70;;;17.30;76.00;;;;;;5068339;28;20082;-74
2021/09/19 11:30:17;;;;;;;4.63;1.98;;;17.10;74.60;;;;;;5054832;28;20545;-74
2021/09/19 11:32:44;;;;;;;2.13;1.88;;;17.10;75.90;;;;;;5065873;28;21880;-73
2021/09/19 11:35:10;;;;;;;2.63;2.05;;;17.00;77.00;;;;;;5058449;28;20108;-73
2021/09/19 11:37:36;;;;;;;2.70;1.90;;;17.00;77.60;;;;;;5058355;28;20024;-74
2021/09/19 11:40:07;;;;;;;8.73;2.90;;;17.00;79.30;;;;;;5060359;28;20036;-73
2021/09/19 11:42:32;;;;;;;3.67;2.15;;;16.90;81.60;;;;;;5055559;28;20029;-75
2021/09/19 11:44:58;;;;;;;6.68;2.42;;;16.90;81.40;;;;;;5054362;28;20033;-73
2021/09/19 11:47:24;;;;;;;4.03;2.33;;;16.90;83.80;;;;;;5059486;28;20036;-74
2021/09/19 11:49:56;;;;;;;3.25;1.98;;;16.90;81.30;;;;;;5054808;28;20041;-73
2021/09/19 11:52:25;;;;;;;2.88;1.92;;;16.90;78.20;;;;;;5059546;28;20380;-73
2021/09/19 11:54:50;;;;;;;4.25;2.10;;;17.00;79.00;;;;;;5054886;28;20087;-73
2021/09/19 11:57:16;;;;;;;8.07;2.80;;;16.90;79.10;;;;;;5058137;28;20090;-73
2021/09/19 11:59:48;;;;;;;3.80;2.17;;;17.00;80.00;;;;;;5058137;28;20032;-72
2021/09/19 12:02:15;;;;;;;6.03;2.58;;;17.00;80.20;;;;;;5049870;28;20063;-73
2021/09/19 12:04:44;;;;;;;3.35;2.00;;;17.00;80.30;;;;;;5051661;28;20777;-72
2021/09/19 12:07:12;;;;;;;5.85;2.47;;;17.10;79.40;;;;;;5058229;28;20037;-73
2021/09/19 12:09:49;;;;;;;3.63;2.20;;;17.10;77.40;;;;;;5055924;28;20029;-74
2021/09/19 12:12:16;;;;;;;4.55;2.08;;;17.20;79.90;;;;;;5058873;28;20029;-73
2021/09/19 12:14:50;;;;;;;3.25;2.00;;;17.20;80.90;;;;;;5053792;28;20021;-72
2021/09/19 12:17:22;;;;;;;3.75;2.20;;;17.30;79.20;;;;;;5051891;28;20029;-73
2021/09/19 12:19:48;;;;;;;5.22;2.00;;;17.30;80.20;;;;;;5052645;28;20491;-72
2021/09/19 12:22:23;;;;;;;3.50;1.83;;;17.30;79.50;;;;;;5052951;28;20033;-71
2021/09/19 12:24:52;;;;;;;3.45;2.10;;;17.30;79.60;;;;;;5057774;28;20021;-72
2021/09/19 12:27:27;;;;;;;3.63;2.08;;;17.30;79.90;;;;;;5052514;28;20814;-73
2021/09/19 12:30:06;;;;;;;5.00;2.08;;;17.30;80.10;;;;;;5059763;28;20455;-72
2021/09/19 12:32:40;;;;;;;3.20;2.17;;;17.20;79.60;;;;;;5059785;28;20028;-73
2021/09/19 12:35:12;;;;;;;3.13;2.08;;;17.20;80.40;;;;;;5052552;28;20112;-71
2021/09/19 12:37:46;;;;;;;4.78;2.30;;;17.10;80.50;;;;;;5050536;28;20056;-72
2021/09/19 12:40:17;;;;;;;3.38;2.13;;;17.10;81.70;;;;;;5056919;28;20021;-72
2021/09/19 12:42:43;;;;;;;4.07;2.38;;;17.00;80.60;;;;;;5050101;28;20052;-72
2021/09/19 12:45:11;;;;;;;4.25;2.53;;;17.00;82.40;;;;;;5050068;28;20025;-72
2021/09/19 12:47:56;;;;;;;4.15;2.17;;;17.00;84.10;;;;;;5055065;28;20025;-71